Currently 65°F in Pinon Hills, California, USA
65°F
79°F / 54°F
4 mph SW
0.00"
Monday, October 16, 2017 7:03 PM PDT

Pinon Hills, California Climate Summary
Typical November Day

Normal High:    63.7°F (17.6°C)
Normal Low:    44.2°F (6.8°C)
Average:    53.3°F (11.8°C)

Hour    Temperature    Wind Speed    Humidity
12:00 AM    50°F (10°C)    3 mph    39%
1:00 AM    50°F (10°C)    3 mph    41%
2:00 AM    49°F (10°C)    3 mph    41%
3:00 AM    49°F (9°C)    3 mph    41%
4:00 AM    48°F (9°C)    2 mph    43%
5:00 AM    48°F (9°C)    2 mph    43%
6:00 AM    48°F (9°C)    2 mph    43%
7:00 AM    49°F (10°C)    2 mph    42%
8:00 AM    54°F (12°C)    3 mph    37%
9:00 AM    57°F (14°C)    3 mph    34%
10:00 AM    59°F (15°C)    4 mph    32%
11:00 AM    60°F (16°C)    4 mph    30%
12:00 PM    61°F (16°C)    4 mph    29%
1:00 PM    62°F (17°C)    4 mph    27%
2:00 PM    62°F (17°C)    4 mph    28%
3:00 PM    62°F (16°C)    3 mph    28%
4:00 PM    60°F (15°C)    3 mph    30%
5:00 PM    54°F (12°C)    2 mph    37%
6:00 PM    52°F (11°C)    2 mph    40%
7:00 PM    51°F (10°C)    3 mph    41%
8:00 PM    50°F (10°C)    2 mph    41%
9:00 PM    50°F (10°C)    3 mph    41%
10:00 PM    50°F (10°C)    2 mph    41%
11:00 PM    49°F (10°C)    2 mph    41%
 

The Pinon Hills, California weather pages are a service of WeatherCurrents.
Copyright ©Mon Oct 16 19:03:48 PDT 2017  WeatherCurrents. All rights reserved. - Submit questions and comments - Privacy Policy